Home   Weather   USA   Center Point   Past weeks
Flag for USA

Past Weather in Center Point, Iowa, USA — Yesterday and Last 2 Weeks

Currently: 90 °F. Sunny. (Weather station: Independence Municipal Airport, USA). See more current weather

Past Weather in Center Point — Graph

°F

Center Point Temperature Yesterday

Maximum temperature yesterday: 87 °F (at 4:35 pm)
Minimum temperature yesterday: 56 °F (at 5:15 am)
Average temperature yesterday: 73 °F

High & Low Weather Summary for the Past Weeks

 TemperatureHumidityPressure
High95 °F (Jun 10, 4:35 pm)96% (Jun 8, 4:35 am)30.16 "Hg (Jun 8, 4:35 am)
Low54 °F (Jun 15, 5:35 am)21% (Jun 3, 4:35 pm)29.77 "Hg (Jun 11, 4:15 pm)
Average76 °F56%29.95 "Hg
* Reported Jun 2 12:15 pm — Jun 17 12:35 pm, Center Point. Weather by CustomWeather, © 2021

Note: Actual official high and low records may vary slightly from our data, if they occured in-between our weather recording intervals... More about our weather records

Center Point Weather History for the Previous 24 Hours

Scroll right to see more
 ConditionsComfort  
Time TempWeatherWind HumidityBarometerVisibility
12:35 pm
Thu, Jun 17
89 °FScattered clouds.12 mph43%29.88 "Hg10 mi
12:15 pm87 °FScattered clouds.14 mph44%29.88 "Hg10 mi
11:55 am86 °FSunny.13 mph46%29.88 "Hg10 mi
11:35 am85 °FSunny.13 mph48%29.88 "Hg10 mi
11:15 am84 °FScattered clouds.13 mph49%29.89 "Hg10 mi
10:55 am84 °FScattered clouds.12 mph50%29.89 "Hg10 mi
10:35 am83 °FScattered clouds.13 mph49%29.89 "Hg10 mi
10:15 am82 °FSunny.10 mph50%29.90 "Hg10 mi
9:55 am81 °FScattered clouds.14 mph52%29.91 "Hg10 mi
9:35 am77 °FPartly sunny.14 mph54%29.92 "Hg10 mi
9:15 am77 °FOvercast.9 mph55%29.93 "Hg10 mi
8:55 am76 °FOvercast.10 mph55%29.93 "Hg10 mi
8:35 am75 °FPartly sunny.12 mph56%29.93 "Hg10 mi
8:15 am75 °FSunny.9 mph56%29.92 "Hg10 mi
7:55 am74 °FSunny.9 mph56%29.91 "Hg10 mi
7:35 am73 °FSunny.9 mph57%29.91 "Hg10 mi
7:15 am72 °FSunny.7 mph60%29.92 "Hg10 mi
6:55 am73 °FSunny.10 mph56%29.91 "Hg10 mi
6:35 am73 °FScattered clouds.6 mph55%29.86 "Hg10 mi
5:55 am71 °FSunny.14 mph58%29.92 "Hg10 mi
5:35 am71 °FScattered clouds.8 mph58%29.94 "Hg10 mi
5:15 am70 °FLight rain. Passing clouds.15 mph60%29.92 "Hg10 mi
4:55 am68 °FPassing clouds.12 mph66%29.93 "Hg10 mi
4:35 am68 °FClear.5 mph67%29.97 "Hg10 mi
4:15 am68 °FClear.No wind65%29.97 "Hg10 mi
3:55 am67 °FClear.3 mph66%29.96 "Hg10 mi
3:35 am68 °FClear.7 mph65%29.94 "Hg10 mi
3:15 am67 °FClear.8 mph66%29.94 "Hg10 mi
2:55 am68 °FClear.7 mph64%29.94 "Hg10 mi
2:35 am69 °FClear.8 mph62%29.94 "Hg10 mi
2:15 am69 °FClear.8 mph62%29.95 "Hg10 mi
1:55 am70 °FClear.7 mph60%29.95 "Hg10 mi
1:35 am71 °FClear.8 mph59%29.95 "Hg10 mi
1:15 am71 °FClear.9 mph56%29.96 "Hg10 mi
12:55 am72 °FClear.9 mph55%29.96 "Hg10 mi
12:35 am72 °FClear.10 mph56%29.96 "Hg10 mi
12:15 am71 °FClear.9 mph56%29.97 "Hg10 mi
11:55 pm
Wed, Jun 16
71 °FClear.8 mph56%29.97 "Hg10 mi
11:35 pm71 °FClear.8 mph57%29.97 "Hg10 mi
11:15 pm71 °FClear.9 mph58%29.97 "Hg10 mi
10:55 pm70 °FClear.9 mph60%29.98 "Hg10 mi
10:35 pm71 °FClear.8 mph58%29.98 "Hg10 mi
9:55 pm71 °FPassing clouds.7 mph58%29.99 "Hg10 mi
9:35 pm71 °FPassing clouds.7 mph58%30.00 "Hg7 mi
9:15 pm72 °FClear.8 mph57%29.99 "Hg10 mi
8:55 pm73 °FClear.7 mph53%30.00 "Hg10 mi
8:35 pm75 °FSunny.8 mph51%29.99 "Hg7 mi
8:15 pm77 °FSunny.7 mph47%30.00 "Hg10 mi
7:55 pm80 °FSunny.6 mph42%30.01 "Hg10 mi
7:35 pm82 °FSunny.8 mph36%30.00 "Hg10 mi
7:15 pm84 °FSunny.7 mph35%30.00 "Hg10 mi
6:55 pm84 °FSunny.8 mph34%30.00 "Hg10 mi
6:35 pm85 °FSunny.8 mph33%30.00 "Hg10 mi
6:15 pm85 °FSunny.12 mph33%30.00 "Hg10 mi
5:55 pm86 °FSunny.12 mph32%30.00 "Hg10 mi
5:35 pm86 °FSunny.10 mph32%30.01 "Hg10 mi
5:15 pm87 °FSunny.9 mph31%30.01 "Hg10 mi
4:55 pm87 °FSunny.8 mph31%30.02 "Hg10 mi
4:35 pm87 °FSunny.7 mph31%30.03 "Hg10 mi
4:15 pm87 °FSunny.9 mph31%30.04 "Hg10 mi
3:55 pm87 °FSunny.7 mph31%30.06 "Hg10 mi
3:35 pm86 °FSunny.8 mph32%30.05 "Hg10 mi
3:15 pm86 °FSunny.5 mph32%30.06 "Hg10 mi
2:55 pm85 °FSunny.8 mph33%30.06 "Hg10 mi
2:35 pm85 °FSunny.9 mph33%30.06 "Hg10 mi
1:35 pm83 °FSunny.9 mph35%30.09 "Hg10 mi
1:15 pm83 °FSunny.7 mph36%30.09 "Hg10 mi
Weather by CustomWeather, © 2021

See weather overview